Terminal Aerodrome Forecast
Issued by NWS

Home | Current Version | Previous Version | Text Only | Print | Product List | Glossary On
Versions: 1 2 3 4 5 6 7 8 9 10 11 12 13
000
FTUS45 KREV 261700
TAFMMH
TAF
KMMH 261733Z 2618/2718 12006KT P6SM BKN220
     FM262200 24013G21KT P6SM SCT100 OVC180
     FM270400 VRB05KT P6SM BKN090 OVC150=

USA.gov is the U.S. government's official web portal to all federal, state and local government web resources and services.